Taos Pueblo, New Mexico
Current Conditions -  °F | °C
As of 1:55 AM on Friday 24 Oct 2014 (Local Time) from KSKX Reporting Station
Clear Clear  
Wind Chill: -1°   Ceiling: Unl
Heat Index:   Visibility: 10mi
Dew Point: -3°   Wind: 7mph
Humidity: 70%   Direction: 360°N
Pressure: 30.38"   Gusts: NA
Location:  36.4227°N, 105.509°W
Report Text: KSKX 240755Z AUTO 36006KT 10SM CLR 02/M03 A3038 RMK AO1
Loading
Personal Weather Stations






























Interactive Weather Map
Tropical Storm Tracking
New forecast layout! Learn more

10-Day Weather Forecast

Advertisements
Track Severe Weather on mobile